createdAt,value
2023-02-23T00:04:52.583Z,4.41
2023-02-23T00:09:58.752Z,4.36
2023-02-23T00:15:02.435Z,4.35
2023-02-23T00:20:13.421Z,4.36
2023-02-23T00:25:18.818Z,4.34
2023-02-23T00:30:22.122Z,4.31
2023-02-23T00:35:25.331Z,4.28
2023-02-23T00:40:30.266Z,4.27
2023-02-23T00:45:34.278Z,4.22
2023-02-23T00:50:39.514Z,4.21
2023-02-23T00:55:43.343Z,4.19
2023-02-23T01:00:46.897Z,4.20
2023-02-23T01:05:50.504Z,4.18
2023-02-23T01:10:54.079Z,4.14
2023-02-23T01:15:57.442Z,4.11
2023-02-23T01:21:05.738Z,4.07
2023-02-23T01:26:19.287Z,4.02
2023-02-23T01:31:24.708Z,3.98
2023-02-23T01:36:29.476Z,3.93
2023-02-23T01:41:34.360Z,3.90
2023-02-23T01:46:40.106Z,3.89
2023-02-23T01:51:48.897Z,3.86
2023-02-23T01:56:58.862Z,3.82
2023-02-23T02:02:05.564Z,3.79
2023-02-23T02:07:10.383Z,3.79
2023-02-23T02:12:15.251Z,3.76
2023-02-23T02:17:26.241Z,3.72
2023-02-23T02:22:50.698Z,3.70
2023-02-23T02:28:04.575Z,3.66
2023-02-23T02:33:32.382Z,3.62
2023-02-23T02:38:54.102Z,3.59
2023-02-23T02:44:25.636Z,3.58
2023-02-23T02:49:43.094Z,3.54
2023-02-23T02:54:57.413Z,3.54
2023-02-23T03:00:20.718Z,3.53
2023-02-23T03:05:57.746Z,3.49
2023-02-23T03:11:25.355Z,3.47
2023-02-23T03:17:08.636Z,3.47
2023-02-23T03:22:43.163Z,3.43
2023-02-23T03:28:27.996Z,3.41
2023-02-23T03:34:18.437Z,3.37
2023-02-23T03:39:55.125Z,3.32
2023-02-23T03:45:24.503Z,3.31
2023-02-23T03:51:00.229Z,3.29
2023-02-23T03:56:23.014Z,3.25
2023-02-23T04:01:47.017Z,3.20
2023-02-23T04:07:11.519Z,3.20
2023-02-23T04:12:59.232Z,3.16
2023-02-23T04:18:07.177Z,3.16
2023-02-23T04:23:11.438Z,3.13
2023-02-23T04:28:14.938Z,3.10
2023-02-23T04:33:22.334Z,3.05
2023-02-23T04:38:25.992Z,3.03
2023-02-23T04:43:29.387Z,3.02
2023-02-23T04:48:32.994Z,3.02
2023-02-23T04:53:36.242Z,3.00
2023-02-23T04:58:39.686Z,2.99
2023-02-23T05:03:43.076Z,2.93
2023-02-23T05:08:46.570Z,2.91
2023-02-23T05:13:49.931Z,2.85
2023-02-23T05:18:54.134Z,2.84
2023-02-23T05:23:58.419Z,2.84
2023-02-23T05:29:35.307Z,2.84
2023-02-23T05:34:43.289Z,2.82
2023-02-23T05:39:47.545Z,2.80
2023-02-23T05:44:50.819Z,2.78
2023-02-23T05:49:54.530Z,2.76
2023-02-23T05:54:58.065Z,2.71
2023-02-23T06:00:01.646Z,2.80
2023-02-23T06:05:09.731Z,2.83
2023-02-23T06:10:13.551Z,2.82
2023-02-23T06:15:17.039Z,2.90
2023-02-23T06:20:20.215Z,2.91
2023-02-23T06:25:24.355Z,2.94
2023-02-23T06:30:30.344Z,2.96
2023-02-23T06:35:35.175Z,3.01
2023-02-23T06:40:40.030Z,3.09
2023-02-23T06:45:47.380Z,3.36
2023-02-23T06:50:50.946Z,3.40
2023-02-23T06:55:54.318Z,3.38
2023-02-23T07:00:59.740Z,3.36
2023-02-23T07:06:04.843Z,3.39
2023-02-23T07:17:36.030Z,3.46
2023-02-23T07:22:40.043Z,3.51
2023-02-23T07:28:15.999Z,3.57
2023-02-23T07:33:21.602Z,3.73
2023-02-23T07:38:26.889Z,3.79
2023-02-23T07:43:30.433Z,3.83
2023-02-23T07:49:07.088Z,3.90
2023-02-23T07:54:43.180Z,4.00
2023-02-23T08:00:52.208Z,4.09
2023-02-23T08:05:56.750Z,4.17
2023-02-23T08:11:05.190Z,4.22
2023-02-23T08:16:08.880Z,4.30
2023-02-23T08:21:12.288Z,4.45
2023-02-23T08:26:15.549Z,4.54
2023-02-23T08:31:21.665Z,4.62
2023-02-23T08:36:25.349Z,4.68
2023-02-23T08:41:28.748Z,4.76
2023-02-23T08:46:33.394Z,4.85
2023-02-23T08:51:37.350Z,4.96
2023-02-23T08:56:42.766Z,5.13
2023-02-23T09:01:46.202Z,5.25
2023-02-23T09:06:50.417Z,5.34
2023-02-23T09:11:53.805Z,5.44
2023-02-23T09:16:57.038Z,5.59
2023-02-23T09:22:00.148Z,5.77
2023-02-23T09:27:03.586Z,5.86
2023-02-23T09:32:07.075Z,5.96
2023-02-23T09:37:10.521Z,6.11
2023-02-23T09:42:28.637Z,6.21
2023-02-23T09:47:36.726Z,6.36
2023-02-23T09:52:45.227Z,6.50
2023-02-23T09:57:50.003Z,6.63
2023-02-23T10:03:08.513Z,6.80
2023-02-23T10:08:25.105Z,6.97
2023-02-23T10:13:31.158Z,7.15
2023-02-23T10:18:56.745Z,7.28
2023-02-23T10:24:27.397Z,7.39
2023-02-23T10:29:36.888Z,7.57
2023-02-23T10:34:41.304Z,7.75
2023-02-23T10:39:44.602Z,7.94
2023-02-23T10:44:48.343Z,8.15
2023-02-23T10:49:55.095Z,8.34
2023-02-23T10:55:00.794Z,8.56
2023-02-23T11:00:27.878Z,8.77
2023-02-23T11:05:43.523Z,9.01
2023-02-23T11:10:56.872Z,9.10
2023-02-23T11:16:20.014Z,9.22
2023-02-23T11:21:26.811Z,9.33
2023-02-23T11:26:37.776Z,9.52
2023-02-23T11:31:51.391Z,9.61
2023-02-23T11:37:07.733Z,9.76
2023-02-23T11:42:18.165Z,9.83
2023-02-23T11:47:23.503Z,9.90
2023-02-23T11:52:28.181Z,9.96
2023-02-23T11:57:34.588Z,10.08
2023-02-23T12:02:53.931Z,10.24
2023-02-23T12:08:04.800Z,10.34
2023-02-23T12:13:08.043Z,10.46
2023-02-23T12:18:38.177Z,10.60
2023-02-23T12:23:46.957Z,10.77
2023-02-23T12:29:11.529Z,10.79
2023-02-23T12:34:24.891Z,10.77
2023-02-23T12:39:37.321Z,10.70
2023-02-23T12:44:52.800Z,10.62
2023-02-23T12:50:07.548Z,10.52
2023-02-23T12:55:13.414Z,10.46
2023-02-23T13:00:39.476Z,10.42
2023-02-23T13:05:51.570Z,10.39
2023-02-23T13:11:04.063Z,10.43
2023-02-23T13:16:27.280Z,10.48
2023-02-23T13:21:45.181Z,10.52
2023-02-23T13:27:15.494Z,10.60
2023-02-23T13:32:29.536Z,10.65
2023-02-23T13:37:52.226Z,10.69
2023-02-23T13:43:18.034Z,10.72
2023-02-23T13:48:33.546Z,10.74
2023-02-23T13:53:48.075Z,10.75
2023-02-23T13:58:57.973Z,10.74
2023-02-23T14:04:05.256Z,10.73
2023-02-23T14:09:22.384Z,10.72
2023-02-23T14:14:32.055Z,10.73
2023-02-23T14:19:43.401Z,10.70
2023-02-23T14:24:46.717Z,10.69
2023-02-23T14:30:12.732Z,10.69
2023-02-23T14:35:34.984Z,10.66
2023-02-23T14:40:42.673Z,10.59
2023-02-23T14:45:47.030Z,10.55
2023-02-23T14:50:53.465Z,10.54
2023-02-23T14:55:59.440Z,10.54
2023-02-23T15:01:03.288Z,10.50
2023-02-23T15:06:07.844Z,10.46
2023-02-23T15:11:14.620Z,10.43
2023-02-23T15:16:37.657Z,10.40
2023-02-23T15:21:41.903Z,10.36
2023-02-23T15:26:46.738Z,10.32
2023-02-23T15:31:53.480Z,10.31
2023-02-23T15:37:00.290Z,10.28
2023-02-23T15:42:06.332Z,10.22
2023-02-23T15:47:33.889Z,10.16
2023-02-23T15:52:46.450Z,10.10
2023-02-23T15:58:02.027Z,10.04
2023-02-23T16:04:50.617Z,10.00
2023-02-23T16:15:43.682Z,9.80
2023-02-23T16:20:56.934Z,9.74
2023-02-23T16:27:01.037Z,9.75
2023-02-23T16:32:18.051Z,9.81
2023-02-23T16:37:26.336Z,9.78
2023-02-23T16:42:40.184Z,9.70
2023-02-23T16:48:56.861Z,9.64
2023-02-23T16:54:00.388Z,9.56
2023-02-23T16:59:05.066Z,9.52
2023-02-23T17:05:16.120Z,9.48
2023-02-23T17:10:36.852Z,9.43
2023-02-23T17:16:13.645Z,9.38
2023-02-23T17:21:24.483Z,9.33
2023-02-23T17:26:28.869Z,9.30
2023-02-23T17:32:05.513Z,9.25
2023-02-23T17:37:10.959Z,9.19
2023-02-23T17:42:47.097Z,9.14
2023-02-23T17:49:26.741Z,9.10
2023-02-23T18:00:22.623Z,9.03
2023-02-23T18:19:03.478Z,8.91
2023-02-23T19:46:01.711Z,8.29
2023-02-23T19:51:52.538Z,8.20
2023-02-23T19:57:57.585Z,8.14
2023-02-23T20:04:10.264Z,8.08
2023-02-23T20:09:40.363Z,8.07
2023-02-23T20:15:36.110Z,8.06
2023-02-23T20:21:42.389Z,8.05
2023-02-23T20:26:59.566Z,8.14
2023-02-23T20:32:07.796Z,8.26
2023-02-23T20:38:32.582Z,8.24
2023-02-23T20:44:01.443Z,8.23
2023-02-23T20:49:20.632Z,8.27
2023-02-23T20:55:09.517Z,8.26
2023-02-23T21:01:14.232Z,8.19
2023-02-23T21:06:42.228Z,8.12
2023-02-23T21:12:11.354Z,8.05
2023-02-23T21:17:18.134Z,7.98
2023-02-23T21:22:54.252Z,7.92
2023-02-23T21:28:18.750Z,7.86
2023-02-23T21:33:33.921Z,7.83
2023-02-23T21:39:18.169Z,7.81
2023-02-23T21:45:32.550Z,7.76
2023-02-23T21:51:29.399Z,7.70
2023-02-23T21:57:35.004Z,7.65
2023-02-23T22:03:55.127Z,7.59
2023-02-23T22:09:17.141Z,7.59
2023-02-23T22:15:09.863Z,7.59
2023-02-23T22:21:19.461Z,7.66
2023-02-23T22:26:59.673Z,7.79
2023-02-23T22:33:04.580Z,7.97
2023-02-23T22:38:44.607Z,8.07
2023-02-23T22:44:09.485Z,8.12
2023-02-23T22:50:22.714Z,8.17
2023-02-23T22:56:17.083Z,8.15
2023-02-23T23:02:24.404Z,8.10
2023-02-23T23:08:38.988Z,8.00
2023-02-23T23:14:22.778Z,7.92
2023-02-23T23:20:05.412Z,7.89
2023-02-23T23:25:47.813Z,7.81
2023-02-23T23:31:57.534Z,7.76
2023-02-23T23:37:42.472Z,7.76
2023-02-23T23:43:42.481Z,7.72
2023-02-23T23:49:51.840Z,7.69
2023-02-23T23:56:08.630Z,7.67
